Time;durP1;ratioP1;P1;durP2;ratioP2;P2;SDS_P1;SDS_P2;PMS_P1;PMS_P2;Temp;Humidity;BMP_temperature;BMP_pressure;BME280_temperature;BME280_humidity;BME280_pressure;Samples;Min_cycle;Max_cycle;Signal;HPM_P1;HPM_P2
2022/12/24 00:01:52;;;;;;;;;;;;;;;;;;5114227;28;1876;-38
2022/12/24 00:04:19;;;;;;;;;;;;;;;;;;5114239;28;2090;-38
2022/12/24 00:06:47;;;;;;;;;;;;;;;;;;5113473;28;1826;-38
2022/12/24 00:09:14;;;;;;;;;;;;;;;;;;5113136;28;1637;-39
2022/12/24 00:11:41;;;;;;;;;;;;;;;;;;5114022;28;2039;-38
2022/12/24 00:14:08;;;;;;;;;;;;;;;;;;5113703;28;2090;-38
2022/12/24 00:16:35;;;;;;;;;;;;;;;;;;5113370;28;1963;-39
2022/12/24 00:19:02;;;;;;;;;;;;;;;;;;5113641;28;1800;-38
2022/12/24 00:21:29;;;;;;;;;;;;;;;;;;5113457;28;2177;-38
2022/12/24 00:23:57;;;;;;;;;;;;;;;;;;5113555;28;1829;-38
2022/12/24 00:26:23;;;;;;;;;;;;;;;;;;5113505;28;2324;-38
2022/12/24 00:28:51;;;;;;;;;;;;;;;;;;5113463;28;1614;-39
2022/12/24 00:31:18;;;;;;;;;;;;;;;;;;5112805;28;1516;-38
2022/12/24 00:33:45;;;;;;;;;;;;;;;;;;5112949;28;2109;-38
2022/12/24 00:36:13;;;;;;;;;;;;;;;;;;5113259;28;2076;-38
2022/12/24 00:38:40;;;;;;;;;;;;;;;;;;5113150;28;1901;-38
2022/12/24 00:41:23;;;;;;;;;;;;;;;;;;5113144;28;1683;-39
2022/12/24 00:44:02;;;;;;;;;;;;;;;;;;5111915;28;2365;-38
2022/12/24 00:46:29;;;;;;;;;;;;;;;;;;5113315;28;2064;-39
2022/12/24 00:48:57;;;;;;;;;;;;;;;;;;5112534;28;2276;-38
2022/12/24 00:51:24;;;;;;;;;;;;;;;;;;5113056;27;1931;-38
2022/12/24 00:53:52;;;;;;;;;;;;;;;;;;5112955;28;1915;-39
2022/12/24 00:56:19;;;;;;;;;;;;;;;;;;5112709;28;1982;-38
2022/12/24 00:58:47;;;;;;;;;;;;;;;;;;5112699;28;2111;-39
2022/12/24 01:01:14;;;;;;;;;;;;;;;;;;5113062;28;2309;-38
2022/12/24 01:03:41;;;;;;;;;;;;;;;;;;5112863;28;1525;-39
2022/12/24 01:06:19;;;;;;;;;;;;;;;;;;5112707;28;2021;-38
2022/12/24 01:08:49;;;;;;;;;;;;;;;;;;5112388;28;1965;-38
2022/12/24 01:11:16;;;;;;;;;;;;;;;;;;5112479;28;1748;-39
2022/12/24 01:13:43;;;;;;;;;;;;;;;;;;5112334;28;1913;-38
2022/12/24 01:16:19;;;;;;;;;;;;;;;;;;5112220;28;2000;-38
2022/12/24 01:18:46;;;;;;;;;;;;;;;;;;5112813;28;2182;-38
2022/12/24 01:21:14;;;;;;;;;;;;;;;;;;5112385;28;2115;-38
2022/12/24 01:23:41;;;;;;;;;;;;;;;;;;5112567;28;1909;-39
2022/12/24 01:26:10;;;;;;;;;;;;;;;;;;5112317;28;2269;-38
2022/12/24 01:28:38;;;;;;;;;;;;;;;;;;5112331;28;1948;-38
2022/12/24 01:31:11;;;;;;;;;;;;;;;;;;5112003;28;1946;-38
2022/12/24 01:33:39;;;;;;;;;;;;;;;;;;5111686;28;1911;-38
2022/12/24 01:36:06;;;;;;;;;;;;;;;;;;5112158;28;1795;-38
2022/12/24 01:38:33;;;;;;;;;;;;;;;;;;5112135;27;1938;-39
2022/12/24 01:43:46;;;;;;;;;;;;;;;;;;5111012;28;1799;-39
2022/12/24 01:46:26;;;;;;;;;;;;;;;;;;5111549;28;2121;-38
2022/12/24 01:48:58;;;;;;;;;;;;;;;;;;5111979;28;1923;-39
2022/12/24 01:51:25;;;;;;;;;;;;;;;;;;5111656;28;1986;-39
2022/12/24 01:53:57;;;;;;;;;;;;;;;;;;5111639;28;1926;-45
2022/12/24 01:56:25;;;;;;;;;;;;;;;;;;5111781;28;1786;-38
2022/12/24 01:58:54;;;;;;;;;;;;;;;;;;5112383;28;2004;-38
2022/12/24 02:01:22;;;;;;;;;;;;;;;;;;5111853;28;2099;-38
2022/12/24 02:03:49;;;;;;;;;;;;;;;;;;5111983;28;2183;-38
2022/12/24 02:06:18;;;;;;;;;;;;;;;;;;5111719;28;1757;-39
2022/12/24 02:08:45;;;;;;;;;;;;;;;;;;5111434;28;2192;-37
2022/12/24 02:11:13;;;;;;;;;;;;;;;;;;5111302;28;1853;-38
2022/12/24 02:13:42;;;;;;;;;;;;;;;;;;5111628;28;1978;-39
2022/12/24 02:16:31;;;;;;;;;;;;;;;;;;5111262;28;1923;-38
2022/12/24 02:19:08;;;;;;;;;;;;;;;;;;5111054;28;1835;-38
2022/12/24 02:21:39;;;;;;;;;;;;;;;;;;5111364;28;1958;-38
2022/12/24 02:24:08;;;;;;;;;;;;;;;;;;5111483;28;1716;-39
2022/12/24 02:26:44;;;;;;;;;;;;;;;;;;5111359;28;1889;-39
2022/12/24 02:29:26;;;;;;;;;;;;;;;;;;5111404;28;1984;-38
2022/12/24 02:31:59;;;;;;;;;;;;;;;;;;5111307;28;1783;-39
2022/12/24 02:34:29;;;;;;;;;;;;;;;;;;5111122;28;1984;-38
2022/12/24 02:37:12;;;;;;;;;;;;;;;;;;5111443;28;2080;-38
2022/12/24 02:39:46;;;;;;;;;;;;;;;;;;5111335;28;1696;-39
2022/12/24 02:42:16;;;;;;;;;;;;;;;;;;5110848;28;2335;-38
2022/12/24 02:44:48;;;;;;;;;;;;;;;;;;5111099;28;1941;-38
2022/12/24 02:47:19;;;;;;;;;;;;;;;;;;5110988;28;1957;-39
2022/12/24 02:49:47;;;;;;;;;;;;;;;;;;5111157;28;1733;-40
2022/12/24 02:52:31;;;;;;;;;;;;;;;;;;5111064;28;1954;-39
2022/12/24 02:55:00;;;;;;;;;;;;;;;;;;5112405;28;1925;-39
2022/12/24 02:57:37;;;;;;;;;;;;;;;;;;5115208;28;1941;-38
2022/12/24 03:00:06;;;;;;;;;;;;;;;;;;5114968;28;1924;-38
2022/12/24 03:02:51;;;;;;;;;;;;;;;;;;5115073;28;1952;-39
2022/12/24 03:05:21;;;;;;;;;;;;;;;;;;5114970;28;1722;-39
2022/12/24 03:07:57;;;;;;;;;;;;;;;;;;5115006;28;1971;-38
2022/12/24 03:10:27;;;;;;;;;;;;;;;;;;5115328;28;1308;-38
2022/12/24 03:12:57;;;;;;;;;;;;;;;;;;5115002;28;1980;-38
2022/12/24 03:15:26;;;;;;;;;;;;;;;;;;5114823;28;1998;-38
2022/12/24 03:17:56;;;;;;;;;;;;;;;;;;5115051;28;1592;-39
2022/12/24 03:20:32;;;;;;;;;;;;;;;;;;5114644;28;1950;-39
2022/12/24 03:22:59;;;;;;;;;;;;;;;;;;5114398;28;2024;-38
2022/12/24 03:25:27;;;;;;;;;;;;;;;;;;5114385;28;1797;-37
2022/12/24 03:27:56;;;;;;;;;;;;;;;;;;5114716;28;1787;-38
2022/12/24 03:30:24;;;;;;;;;;;;;;;;;;5114435;28;1973;-39
2022/12/24 03:32:51;;;;;;;;;;;;;;;;;;5114635;28;2012;-37
2022/12/24 03:35:19;;;;;;;;;;;;;;;;;;5114495;28;2027;-38
2022/12/24 03:37:46;;;;;;;;;;;;;;;;;;5113302;28;1849;-38
2022/12/24 03:40:13;;;;;;;;;;;;;;;;;;5114294;28;1477;-38
2022/12/24 03:42:40;;;;;;;;;;;;;;;;;;5114641;28;1875;-38
2022/12/24 03:45:08;;;;;;;;;;;;;;;;;;5114474;28;1961;-38
2022/12/24 03:47:35;;;;;;;;;;;;;;;;;;5114430;28;1991;-39
2022/12/24 03:50:02;;;;;;;;;;;;;;;;;;5113859;28;1841;-38
2022/12/24 03:52:29;;;;;;;;;;;;;;;;;;5114208;28;1351;-38
2022/12/24 03:54:56;;;;;;;;;;;;;;;;;;5114002;28;2235;-39
2022/12/24 03:57:24;;;;;;;;;;;;;;;;;;5114097;28;1845;-38
2022/12/24 03:59:51;;;;;;;;;;;;;;;;;;5114348;28;1640;-38
2022/12/24 04:02:18;;;;;;;;;;;;;;;;;;5113810;28;2097;-38
2022/12/24 04:04:45;;;;;;;;;;;;;;;;;;5112362;28;2021;-38
2022/12/24 04:07:13;;;;;;;;;;;;;;;;;;5113012;27;1972;-38
2022/12/24 04:09:40;;;;;;;;;;;;;;;;;;5113534;28;1977;-38
2022/12/24 04:12:07;;;;;;;;;;;;;;;;;;5113870;28;1323;-39
2022/12/24 04:14:34;;;;;;;;;;;;;;;;;;5113781;28;2096;-38
2022/12/24 04:17:01;;;;;;;;;;;;;;;;;;5113829;28;1755;-38
2022/12/24 04:19:28;;;;;;;;;;;;;;;;;;5113440;28;2054;-39
2022/12/24 04:21:55;;;;;;;;;;;;;;;;;;5113638;28;1994;-38
2022/12/24 04:24:23;;;;;;;;;;;;;;;;;;5113671;28;2045;-39
2022/12/24 04:26:50;;;;;;;;;;;;;;;;;;5098251;28;2064;-38
2022/12/24 04:29:17;;;;;;;;;;;;;;;;;;5092917;28;1964;-38
2022/12/24 04:31:44;;;;;;;;;;;;;;;;;;5092958;28;2039;-39
2022/12/24 04:34:11;;;;;;;;;;;;;;;;;;5093255;28;2189;-39
2022/12/24 04:36:39;;;;;;;;;;;;;;;;;;5092743;28;1935;-39
2022/12/24 04:39:06;;;;;;;;;;;;;;;;;;5092771;28;2250;-39
2022/12/24 04:41:33;;;;;;;;;;;;;;;;;;5092997;28;1986;-38
2022/12/24 04:44:00;;;;;;;;;;;;;;;;;;5092575;28;2291;-39
2022/12/24 04:46:30;;;;;;;;;;;;;;;;;;5092595;28;2022;-39
2022/12/24 04:48:58;;;;;;;;;;;;;;;;;;5092603;28;1815;-39
2022/12/24 04:51:25;;;;;;;;;;;;;;;;;;5092520;28;2003;-38
2022/12/24 04:53:53;;;;;;;;;;;;;;;;;;5092769;28;1790;-38
2022/12/24 04:56:21;;;;;;;;;;;;;;;;;;5092498;28;2334;-39
2022/12/24 04:58:49;;;;;;;;;;;;;;;;;;5092262;28;1904;-40
2022/12/24 05:01:17;;;;;;;;;;;;;;;;;;5099291;28;1649;-37
2022/12/24 05:03:46;;;;;;;;;;;;;;;;;;5112721;28;1961;-38
2022/12/24 05:06:14;;;;;;;;;;;;;;;;;;5112445;28;1909;-39
2022/12/24 05:08:42;;;;;;;;;;;;;;;;;;5112327;28;2135;-38
2022/12/24 05:11:13;;;;;;;;;;;;;;;;;;5111240;28;1852;-43
2022/12/24 05:13:44;;;;;;;;;;;;;;;;;;5112776;28;1819;-41
2022/12/24 05:16:14;;;;;;;;;;;;;;;;;;5112412;28;1977;-39
2022/12/24 05:18:41;;;;;;;;;;;;;;;;;;5112434;28;1916;-39
2022/12/24 05:21:09;;;;;;;;;;;;;;;;;;5112278;28;1977;-38
2022/12/24 05:26:25;;;;;;;;;;;;;;;;;;5112514;28;2075;-38
2022/12/24 05:28:54;;;;;;;;;;;;;;;;;;5112150;28;2058;-39
2022/12/24 05:31:22;;;;;;;;;;;;;;;;;;5112175;28;1903;-38
2022/12/24 05:33:49;;;;;;;;;;;;;;;;;;5111963;28;1960;-39
2022/12/24 05:36:16;;;;;;;;;;;;;;;;;;5111899;27;1911;-39
2022/12/24 05:38:43;;;;;;;;;;;;;;;;;;5111829;28;2103;-39
2022/12/24 05:41:10;;;;;;;;;;;;;;;;;;5110827;28;2408;-37
2022/12/24 05:43:38;;;;;;;;;;;;;;;;;;5111374;28;1641;-39
2022/12/24 05:46:07;;;;;;;;;;;;;;;;;;5111735;28;1915;-39
2022/12/24 05:48:34;;;;;;;;;;;;;;;;;;5111774;28;1713;-39
2022/12/24 05:51:05;;;;;;;;;;;;;;;;;;5111954;28;2127;-40
2022/12/24 05:53:33;;;;;;;;;;;;;;;;;;5112080;28;1860;-38
2022/12/24 05:56:10;;;;;;;;;;;;;;;;;;5111746;28;2045;-38
2022/12/24 05:58:41;;;;;;;;;;;;;;;;;;5111747;28;1773;-39
2022/12/24 06:01:09;;;;;;;;;;;;;;;;;;5111254;27;1594;-38
2022/12/24 06:03:36;;;;;;;;;;;;;;;;;;5111531;28;2104;-43
2022/12/24 06:06:05;;;;;;;;;;;;;;;;;;5111613;28;1947;-43
2022/12/24 06:08:33;;;;;;;;;;;;;;;;;;5111252;28;2088;-47
2022/12/24 06:11:01;;;;;;;;;;;;;;;;;;5111450;28;1930;-39
2022/12/24 06:13:29;;;;;;;;;;;;;;;;;;5111681;28;2334;-39
2022/12/24 06:15:57;;;;;;;;;;;;;;;;;;5110068;28;2079;-38
2022/12/24 06:18:25;;;;;;;;;;;;;;;;;;5111917;28;1668;-40
2022/12/24 06:20:53;;;;;;;;;;;;;;;;;;5111707;28;1755;-40
2022/12/24 06:23:21;;;;;;;;;;;;;;;;;;5111700;28;2056;-39
2022/12/24 06:25:48;;;;;;;;;;;;;;;;;;5110652;28;1770;-39
2022/12/24 06:28:16;;;;;;;;;;;;;;;;;;5110917;28;2029;-40
2022/12/24 06:30:47;;;;;;;;;;;;;;;;;;5110707;28;1484;-47
2022/12/24 06:33:15;;;;;;;;;;;;;;;;;;5111026;28;2056;-39
2022/12/24 06:35:43;;;;;;;;;;;;;;;;;;5110996;28;1920;-39
2022/12/24 06:38:11;;;;;;;;;;;;;;;;;;5111479;28;1705;-39
2022/12/24 06:40:38;;;;;;;;;;;;;;;;;;5111067;28;2021;-38
2022/12/24 06:43:05;;;;;;;;;;;;;;;;;;5110091;28;1824;-38
2022/12/24 06:45:33;;;;;;;;;;;;;;;;;;5111107;28;2136;-38
2022/12/24 06:48:00;;;;;;;;;;;;;;;;;;5111093;28;2096;-38
2022/12/24 06:50:27;;;;;;;;;;;;;;;;;;5111186;28;1661;-38
2022/12/24 06:52:54;;;;;;;;;;;;;;;;;;5111331;28;2017;-38
2022/12/24 06:55:21;;;;;;;;;;;;;;;;;;5111515;28;1912;-38
2022/12/24 06:57:48;;;;;;;;;;;;;;;;;;5110759;28;2324;-39
2022/12/24 07:00:15;;;;;;;;;;;;;;;;;;5110836;28;2002;-39
2022/12/24 07:02:43;;;;;;;;;;;;;;;;;;5110958;28;1420;-39
2022/12/24 07:05:10;;;;;;;;;;;;;;;;;;5111010;28;2074;-39
2022/12/24 07:07:41;;;;;;;;;;;;;;;;;;5110989;28;1814;-38
2022/12/24 07:10:12;;;;;;;;;;;;;;;;;;5110861;28;1803;-39
2022/12/24 07:12:40;;;;;;;;;;;;;;;;;;5109863;28;2337;-39
2022/12/24 07:15:07;;;;;;;;;;;;;;;;;;5110746;28;2049;-39
2022/12/24 07:17:34;;;;;;;;;;;;;;;;;;5110831;28;1933;-39
2022/12/24 07:20:02;;;;;;;;;;;;;;;;;;5110683;28;1892;-39
2022/12/24 07:22:29;;;;;;;;;;;;;;;;;;5110907;28;1963;-39
2022/12/24 07:24:56;;;;;;;;;;;;;;;;;;5110897;28;1906;-38
2022/12/24 07:27:23;;;;;;;;;;;;;;;;;;5111153;28;1812;-38
2022/12/24 07:29:50;;;;;;;;;;;;;;;;;;5110427;28;2266;-39
2022/12/24 07:32:19;;;;;;;;;;;;;;;;;;5110762;28;1848;-41
2022/12/24 07:34:46;;;;;;;;;;;;;;;;;;5110521;28;1984;-39
2022/12/24 07:37:13;;;;;;;;;;;;;;;;;;5110222;28;2039;-38
2022/12/24 07:39:40;;;;;;;;;;;;;;;;;;5110564;28;1910;-38
2022/12/24 07:42:07;;;;;;;;;;;;;;;;;;5112195;28;1906;-38
2022/12/24 07:44:35;;;;;;;;;;;;;;;;;;5114309;28;1930;-38
2022/12/24 07:47:03;;;;;;;;;;;;;;;;;;5114315;28;2011;-38
2022/12/24 07:49:30;;;;;;;;;;;;;;;;;;5114285;28;1831;-38
2022/12/24 07:51:58;;;;;;;;;;;;;;;;;;5113875;28;1850;-39
2022/12/24 07:54:25;;;;;;;;;;;;;;;;;;5114672;28;2089;-39
2022/12/24 07:56:53;;;;;;;;;;;;;;;;;;5114103;28;2045;-39
2022/12/24 07:59:20;;;;;;;;;;;;;;;;;;5113709;28;2083;-38
2022/12/24 08:01:47;;;;;;;;;;;;;;;;;;5113875;28;2137;-38
2022/12/24 08:04:15;;;;;;;;;;;;;;;;;;5113804;28;1871;-38
2022/12/24 08:06:42;;;;;;;;;;;;;;;;;;5113514;28;1879;-38
2022/12/24 08:09:09;;;;;;;;;;;;;;;;;;5113266;28;2021;-38
2022/12/24 08:11:36;;;;;;;;;;;;;;;;;;5113458;28;1963;-39
2022/12/24 08:14:03;;;;;;;;;;;;;;;;;;5114089;28;2674;-38
2022/12/24 08:16:30;;;;;;;;;;;;;;;;;;5113428;28;1969;-39
2022/12/24 08:18:57;;;;;;;;;;;;;;;;;;5113332;28;2291;-39
2022/12/24 08:21:25;;;;;;;;;;;;;;;;;;5113786;28;1932;-39
2022/12/24 08:23:52;;;;;;;;;;;;;;;;;;5113980;28;1981;-38
2022/12/24 08:26:19;;;;;;;;;;;;;;;;;;5112996;28;2454;-38
2022/12/24 08:28:46;;;;;;;;;;;;;;;;;;5113014;28;2010;-39
2022/12/24 08:31:14;;;;;;;;;;;;;;;;;;5113512;28;1905;-39
2022/12/24 08:33:41;;;;;;;;;;;;;;;;;;5113356;28;1861;-38
2022/12/24 08:36:08;;;;;;;;;;;;;;;;;;5113443;28;1986;-39
2022/12/24 08:38:35;;;;;;;;;;;;;;;;;;5112834;28;2204;-38
2022/12/24 08:41:03;;;;;;;;;;;;;;;;;;5113580;28;1945;-39
2022/12/24 08:43:30;;;;;;;;;;;;;;;;;;5113325;28;2006;-40
2022/12/24 08:46:01;;;;;;;;;;;;;;;;;;5112882;27;2088;-39
2022/12/24 08:48:28;;;;;;;;;;;;;;;;;;5112810;28;1981;-39
2022/12/24 08:50:55;;;;;;;;;;;;;;;;;;5113145;28;2012;-38
2022/12/24 08:53:22;;;;;;;;;;;;;;;;;;5111796;28;2140;-39
2022/12/24 08:55:51;;;;;;;;;;;;;;;;;;5112736;28;1903;-39
2022/12/24 08:58:21;;;;;;;;;;;;;;;;;;5112707;28;2123;-39
2022/12/24 09:00:49;;;;;;;;;;;;;;;;;;5112596;28;1892;-38
2022/12/24 09:03:16;;;;;;;;;;;;;;;;;;5112956;28;1994;-39
2022/12/24 09:05:49;;;;;;;;;;;;;;;;;;5113144;28;2029;-39
2022/12/24 09:08:16;;;;;;;;;;;;;;;;;;5112353;28;1796;-39
2022/12/24 09:10:43;;;;;;;;;;;;;;;;;;5111022;28;2286;-37
2022/12/24 09:13:10;;;;;;;;;;;;;;;;;;5112207;28;1790;-39
2022/12/24 09:15:38;;;;;;;;;;;;;;;;;;5112780;28;1986;-39
2022/12/24 09:18:05;;;;;;;;;;;;;;;;;;5112572;28;2324;-39
2022/12/24 09:20:33;;;;;;;;;;;;;;;;;;5111877;28;1899;-39
2022/12/24 09:23:00;;;;;;;;;;;;;;;;;;5112259;28;1673;-38
2022/12/24 09:25:27;;;;;;;;;;;;;;;;;;5112124;28;2048;-39
2022/12/24 09:27:54;;;;;;;;;;;;;;;;;;5112573;28;1906;-38
2022/12/24 09:30:21;;;;;;;;;;;;;;;;;;5112601;28;1783;-38
2022/12/24 09:32:50;;;;;;;;;;;;;;;;;;5111951;28;1764;-39
2022/12/24 09:35:17;;;;;;;;;;;;;;;;;;5112131;28;2183;-39
2022/12/24 09:37:44;;;;;;;;;;;;;;;;;;5110547;28;2011;-37
2022/12/24 09:40:21;;;;;;;;;;;;;;;;;;5111684;28;2124;-39
2022/12/24 09:42:52;;;;;;;;;;;;;;;;;;5110614;28;2375;-39
2022/12/24 09:45:24;;;;;;;;;;;;;;;;;;5112072;28;1988;-39
2022/12/24 09:47:56;;;;;;;;;;;;;;;;;;5111908;28;2108;-39
2022/12/24 09:50:28;;;;;;;;;;;;;;;;;;5111860;28;2015;-39
2022/12/24 09:52:56;;;;;;;;;;;;;;;;;;5111069;28;1873;-39
2022/12/24 09:55:30;;;;;;;;;;;;;;;;;;5112158;28;1743;-39
2022/12/24 09:57:58;;;;;;;;;;;;;;;;;;5111079;27;1929;-39
2022/12/24 10:00:28;;;;;;;;;;;;;;;;;;5111908;28;1952;-38
2022/12/24 10:02:55;;;;;;;;;;;;;;;;;;5111922;28;1811;-39
2022/12/24 10:05:40;;;;;;;;;;;;;;;;;;5110812;28;1957;-39
2022/12/24 10:08:18;;;;;;;;;;;;;;;;;;5110744;28;2011;-42
2022/12/24 10:10:50;;;;;;;;;;;;;;;;;;5111156;28;1981;-41
2022/12/24 10:13:29;;;;;;;;;;;;;;;;;;5110857;28;2122;-39
2022/12/24 10:16:02;;;;;;;;;;;;;;;;;;5110869;28;1913;-39
2022/12/24 10:18:52;;;;;;;;;;;;;;;;;;5111529;28;1964;-39
2022/12/24 10:21:19;;;;;;;;;;;;;;;;;;5110767;28;2059;-39
2022/12/24 10:23:54;;;;;;;;;;;;;;;;;;5110016;28;1901;-38
2022/12/24 10:26:28;;;;;;;;;;;;;;;;;;5111676;28;1701;-39
2022/12/24 10:28:57;;;;;;;;;;;;;;;;;;5111466;28;2389;-38
2022/12/24 10:31:26;;;;;;;;;;;;;;;;;;5110163;28;2040;-39
2022/12/24 10:33:56;;;;;;;;;;;;;;;;;;5111253;28;2081;-40
2022/12/24 10:36:25;;;;;;;;;;;;;;;;;;5111434;28;1980;-39
2022/12/24 10:38:53;;;;;;;;;;;;;;;;;;5109857;28;2012;-39
2022/12/24 10:41:20;;;;;;;;;;;;;;;;;;5111323;28;1993;-38
2022/12/24 10:43:47;;;;;;;;;;;;;;;;;;5110624;28;1864;-39
2022/12/24 10:46:14;;;;;;;;;;;;;;;;;;5111228;28;2113;-39
2022/12/24 10:48:44;;;;;;;;;;;;;;;;;;5111068;28;1932;-39
2022/12/24 10:51:27;;;;;;;;;;;;;;;;;;5109932;28;1967;-39
2022/12/24 10:54:05;;;;;;;;;;;;;;;;;;5111197;28;2002;-39
2022/12/24 10:56:39;;;;;;;;;;;;;;;;;;5110855;28;2226;-38
2022/12/24 10:59:21;;;;;;;;;;;;;;;;;;5111127;28;1936;-39
2022/12/24 11:01:48;;;;;;;;;;;;;;;;;;5110772;28;2000;-39
2022/12/24 11:04:18;;;;;;;;;;;;;;;;;;5111229;28;1852;-40
2022/12/24 11:06:55;;;;;;;;;;;;;;;;;;5110787;28;2044;-38
2022/12/24 11:09:39;;;;;;;;;;;;;;;;;;5111075;28;1966;-39
2022/12/24 11:12:15;;;;;;;;;;;;;;;;;;5110890;28;1984;-39
2022/12/24 11:14:43;;;;;;;;;;;;;;;;;;5110711;28;1803;-39
2022/12/24 11:17:19;;;;;;;;;;;;;;;;;;5114471;28;2091;-39
2022/12/24 11:19:47;;;;;;;;;;;;;;;;;;5114191;28;1777;-38
2022/12/24 11:22:20;;;;;;;;;;;;;;;;;;5114511;28;1745;-40
2022/12/24 11:24:56;;;;;;;;;;;;;;;;;;5114122;28;2062;-38
2022/12/24 11:27:31;;;;;;;;;;;;;;;;;;5114457;28;1841;-38
2022/12/24 11:30:25;;;;;;;;;;;;;;;;;;5114225;28;1987;-39
2022/12/24 11:33:02;;;;;;;;;;;;;;;;;;5111056;28;2009;-39
2022/12/24 11:35:30;;;;;;;;;;;;;;;;;;5093742;28;1976;-38
2022/12/24 11:38:00;;;;;;;;;;;;;;;;;;5093814;28;1998;-39
2022/12/24 11:40:32;;;;;;;;;;;;;;;;;;5092897;28;1884;-39
2022/12/24 11:43:00;;;;;;;;;;;;;;;;;;5094133;28;2117;-39
2022/12/24 11:45:29;;;;;;;;;;;;;;;;;;5094147;28;1908;-39
2022/12/24 11:47:56;;;;;;;;;;;;;;;;;;5094200;28;1826;-38
2022/12/24 11:50:30;;;;;;;;;;;;;;;;;;5093620;28;2026;-38
2022/12/24 11:53:17;;;;;;;;;;;;;;;;;;5093441;28;1835;-39
2022/12/24 11:55:46;;;;;;;;;;;;;;;;;;5093282;28;1994;-39
2022/12/24 11:58:29;;;;;;;;;;;;;;;;;;5093565;28;2039;-39
2022/12/24 12:01:02;;;;;;;;;;;;;;;;;;5093444;28;1897;-39
2022/12/24 12:03:32;;;;;;;;;;;;;;;;;;5093544;28;1964;-39
2022/12/24 12:06:01;;;;;;;;;;;;;;;;;;5109823;28;2068;-38
2022/12/24 12:08:29;;;;;;;;;;;;;;;;;;5113721;28;1931;-39
2022/12/24 12:10:57;;;;;;;;;;;;;;;;;;5113680;28;2019;-39
2022/12/24 12:13:32;;;;;;;;;;;;;;;;;;5113287;28;1638;-38
2022/12/24 12:16:12;;;;;;;;;;;;;;;;;;5112408;28;2443;-39
2022/12/24 12:18:43;;;;;;;;;;;;;;;;;;5113398;28;1924;-38
2022/12/24 12:21:21;;;;;;;;;;;;;;;;;;5113289;28;1961;-39
2022/12/24 12:23:49;;;;;;;;;;;;;;;;;;5113067;28;1856;-38
2022/12/24 12:26:17;;;;;;;;;;;;;;;;;;5113378;28;2113;-39
2022/12/24 12:28:52;;;;;;;;;;;;;;;;;;5112191;28;1632;-39
2022/12/24 12:31:26;;;;;;;;;;;;;;;;;;5113405;28;2042;-38
2022/12/24 12:33:58;;;;;;;;;;;;;;;;;;5113684;28;1949;-39
2022/12/24 12:36:30;;;;;;;;;;;;;;;;;;5113267;28;1934;-38
2022/12/24 12:38:57;;;;;;;;;;;;;;;;;;5111933;28;1959;-38
2022/12/24 12:41:27;;;;;;;;;;;;;;;;;;5113139;27;1802;-38
2022/12/24 12:43:58;;;;;;;;;;;;;;;;;;5113406;28;2113;-39
2022/12/24 12:46:28;;;;;;;;;;;;;;;;;;5113375;28;1824;-40
2022/12/24 12:49:02;;;;;;;;;;;;;;;;;;5113157;28;2143;-39
2022/12/24 12:51:50;;;;;;;;;;;;;;;;;;5112853;28;1985;-39
2022/12/24 12:54:23;;;;;;;;;;;;;;;;;;5113082;28;2084;-39
2022/12/24 12:56:53;;;;;;;;;;;;;;;;;;5112867;28;1996;-40
2022/12/24 12:59:33;;;;;;;;;;;;;;;;;;5112472;28;2019;-39
2022/12/24 13:02:20;;;;;;;;;;;;;;;;;;5112577;28;1955;-39
2022/12/24 13:04:59;;;;;;;;;;;;;;;;;;5112739;28;2026;-38
2022/12/24 13:07:29;;;;;;;;;;;;;;;;;;5112772;28;1971;-38
2022/12/24 13:10:15;;;;;;;;;;;;;;;;;;5111357;28;1704;-38
2022/12/24 13:13:05;;;;;;;;;;;;;;;;;;5112488;28;2199;-39
2022/12/24 13:15:32;;;;;;;;;;;;;;;;;;5104790;28;1968;-38
2022/12/24 13:17:59;;;;;;;;;;;;;;;;;;5112049;28;2077;-38
2022/12/24 13:20:28;;;;;;;;;;;;;;;;;;5112558;28;1302;-38
2022/12/24 13:22:55;;;;;;;;;;;;;;;;;;5111874;28;2410;-39
2022/12/24 13:25:26;;;;;;;;;;;;;;;;;;5112632;28;1897;-39
2022/12/24 13:27:53;;;;;;;;;;;;;;;;;;5112655;28;2197;-38
2022/12/24 13:30:32;;;;;;;;;;;;;;;;;;5112179;28;1738;-39
2022/12/24 13:32:59;;;;;;;;;;;;;;;;;;5112256;28;1904;-38
2022/12/24 13:35:28;;;;;;;;;;;;;;;;;;5112260;28;1883;-38
2022/12/24 13:38:21;;;;;;;;;;;;;;;;;;5111745;28;1903;-38
2022/12/24 13:40:48;;;;;;;;;;;;;;;;;;5111362;28;1260;-40
2022/12/24 13:43:15;;;;;;;;;;;;;;;;;;5112303;28;2035;-38
2022/12/24 13:45:44;;;;;;;;;;;;;;;;;;5111989;28;1935;-39
2022/12/24 13:48:11;;;;;;;;;;;;;;;;;;5110917;28;1972;-39
2022/12/24 13:50:38;;;;;;;;;;;;;;;;;;5111804;28;1916;-38
2022/12/24 13:53:17;;;;;;;;;;;;;;;;;;5111637;28;2032;-39
2022/12/24 13:56:04;;;;;;;;;;;;;;;;;;5112123;28;2011;-39
2022/12/24 13:58:33;;;;;;;;;;;;;;;;;;5111652;28;1954;-38
2022/12/24 14:01:00;;;;;;;;;;;;;;;;;;5112005;28;1996;-39
2022/12/24 14:03:30;;;;;;;;;;;;;;;;;;5111911;28;1959;-39
2022/12/24 14:06:21;;;;;;;;;;;;;;;;;;5111327;28;2064;-39
2022/12/24 14:08:49;;;;;;;;;;;;;;;;;;5103707;28;2046;-38
2022/12/24 14:11:17;;;;;;;;;;;;;;;;;;5111481;28;1800;-39
2022/12/24 14:13:47;;;;;;;;;;;;;;;;;;5111657;27;1502;-39
2022/12/24 14:16:31;;;;;;;;;;;;;;;;;;5111027;28;1842;-39
2022/12/24 14:18:58;;;;;;;;;;;;;;;;;;5110931;28;2049;-38
2022/12/24 14:21:28;;;;;;;;;;;;;;;;;;5111516;28;2255;-39
2022/12/24 14:24:00;;;;;;;;;;;;;;;;;;5111640;28;1623;-39
2022/12/24 14:26:29;;;;;;;;;;;;;;;;;;5111509;28;1776;-39
2022/12/24 14:28:58;;;;;;;;;;;;;;;;;;5111466;28;2007;-41
2022/12/24 14:31:25;;;;;;;;;;;;;;;;;;5111516;28;1807;-38
2022/12/24 14:34:04;;;;;;;;;;;;;;;;;;5111298;28;2016;-38
2022/12/24 14:36:31;;;;;;;;;;;;;;;;;;5111456;28;1931;-38
2022/12/24 14:38:59;;;;;;;;;;;;;;;;;;5111105;28;1983;-39
2022/12/24 14:41:34;;;;;;;;;;;;;;;;;;5111362;28;1964;-38
2022/12/24 14:44:02;;;;;;;;;;;;;;;;;;5111171;28;2015;-39
2022/12/24 14:46:29;;;;;;;;;;;;;;;;;;5110812;28;2081;-38
2022/12/24 14:49:03;;;;;;;;;;;;;;;;;;5111399;28;2108;-39
2022/12/24 14:51:48;;;;;;;;;;;;;;;;;;5113896;28;1954;-38
2022/12/24 14:54:30;;;;;;;;;;;;;;;;;;5115437;28;1966;-38
2022/12/24 14:57:09;;;;;;;;;;;;;;;;;;5115577;28;2197;-38
2022/12/24 15:00:06;;;;;;;;;;;;;;;;;;5115232;28;2072;-38
2022/12/24 15:02:39;;;;;;;;;;;;;;;;;;5102340;28;1806;-38
2022/12/24 15:05:07;;;;;;;;;;;;;;;;;;5114910;28;2124;-38
2022/12/24 15:07:35;;;;;;;;;;;;;;;;;;5115228;28;1433;-38
2022/12/24 15:10:07;;;;;;;;;;;;;;;;;;5115532;28;1961;-39
2022/12/24 15:12:34;;;;;;;;;;;;;;;;;;5114181;28;2127;-39
2022/12/24 15:15:02;;;;;;;;;;;;;;;;;;5114998;28;1501;-38
2022/12/24 15:17:29;;;;;;;;;;;;;;;;;;5114923;28;2118;-39
2022/12/24 15:19:58;;;;;;;;;;;;;;;;;;5114658;28;1870;-37
2022/12/24 15:22:27;;;;;;;;;;;;;;;;;;5115046;28;2245;-39
2022/12/24 15:24:54;;;;;;;;;;;;;;;;;;5114790;28;2194;-39
2022/12/24 15:27:23;;;;;;;;;;;;;;;;;;5114584;28;1798;-38
2022/12/24 15:29:52;;;;;;;;;;;;;;;;;;5114539;28;2058;-38
2022/12/24 15:32:20;;;;;;;;;;;;;;;;;;5114145;28;2167;-38
2022/12/24 15:34:48;;;;;;;;;;;;;;;;;;5114494;28;2137;-39
2022/12/24 15:37:20;;;;;;;;;;;;;;;;;;5114564;28;1915;-38
2022/12/24 15:39:55;;;;;;;;;;;;;;;;;;5114343;28;1975;-38
2022/12/24 15:42:24;;;;;;;;;;;;;;;;;;5114921;28;2095;-38
2022/12/24 15:45:06;;;;;;;;;;;;;;;;;;5114236;28;2192;-38
2022/12/24 15:47:53;;;;;;;;;;;;;;;;;;5114536;28;1652;-38
2022/12/24 15:50:32;;;;;;;;;;;;;;;;;;5102770;28;1893;-39
2022/12/24 15:53:03;;;;;;;;;;;;;;;;;;5113138;28;1967;-39
2022/12/24 15:55:59;;;;;;;;;;;;;;;;;;5114128;28;1958;-38
2022/12/24 15:58:27;;;;;;;;;;;;;;;;;;5114276;28;2027;-38
2022/12/24 16:01:14;;;;;;;;;;;;;;;;;;5114192;28;2042;-38
2022/12/24 16:03:48;;;;;;;;;;;;;;;;;;5112726;28;2233;-39
2022/12/24 16:06:15;;;;;;;;;;;;;;;;;;5113853;28;1904;-38
2022/12/24 16:08:42;;;;;;;;;;;;;;;;;;5113709;28;1934;-39
2022/12/24 16:11:39;;;;;;;;;;;;;;;;;;5113728;28;1805;-38
2022/12/24 16:14:15;;;;;;;;;;;;;;;;;;5101067;28;2066;-38
2022/12/24 16:16:47;;;;;;;;;;;;;;;;;;5113638;28;2120;-39
2022/12/24 16:19:25;;;;;;;;;;;;;;;;;;5113484;28;1913;-38
2022/12/24 16:21:53;;;;;;;;;;;;;;;;;;5113733;28;2124;-39
2022/12/24 16:24:26;;;;;;;;;;;;;;;;;;5113543;28;2037;-38
2022/12/24 16:26:53;;;;;;;;;;;;;;;;;;5112431;28;1934;-38
2022/12/24 16:29:26;;;;;;;;;;;;;;;;;;5113594;28;2005;-38
2022/12/24 16:31:58;;;;;;;;;;;;;;;;;;5113417;28;1736;-38
2022/12/24 16:34:28;;;;;;;;;;;;;;;;;;5113666;28;1911;-39
2022/12/24 16:36:55;;;;;;;;;;;;;;;;;;5113502;28;1652;-38
2022/12/24 16:39:25;;;;;;;;;;;;;;;;;;5113462;27;1910;-38
2022/12/24 16:44:39;;;;;;;;;;;;;;;;;;5113070;28;1418;-38
2022/12/24 16:47:14;;;;;;;;;;;;;;;;;;5113301;28;1931;-39
2022/12/24 16:49:41;;;;;;;;;;;;;;;;;;5112779;28;2382;-39
2022/12/24 16:52:28;;;;;;;;;;;;;;;;;;5111684;28;2327;-39
2022/12/24 16:54:55;;;;;;;;;;;;;;;;;;5113227;27;1965;-38
2022/12/24 16:57:23;;;;;;;;;;;;;;;;;;5112876;28;2368;-38
2022/12/24 16:59:50;;;;;;;;;;;;;;;;;;5112997;28;1989;-39
2022/12/24 17:02:22;;;;;;;;;;;;;;;;;;5113014;28;1937;-38
2022/12/24 17:04:49;;;;;;;;;;;;;;;;;;5112514;28;1993;-39
2022/12/24 17:07:17;;;;;;;;;;;;;;;;;;5112682;28;1956;-38
2022/12/24 17:09:44;;;;;;;;;;;;;;;;;;5111509;28;1945;-38
2022/12/24 17:12:12;;;;;;;;;;;;;;;;;;5112445;28;1898;-39
2022/12/24 17:14:41;;;;;;;;;;;;;;;;;;5112034;28;1946;-38
2022/12/24 17:17:17;;;;;;;;;;;;;;;;;;5112081;28;2047;-39
2022/12/24 17:19:45;;;;;;;;;;;;;;;;;;5111791;28;1980;-38
2022/12/24 17:22:12;;;;;;;;;;;;;;;;;;5116959;27;2046;-38
2022/12/24 17:24:39;;;;;;;;;;;;;;;;;;5128173;27;1519;-38
2022/12/24 17:27:06;;;;;;;;;;;;;;;;;;5112125;28;1907;-38
2022/12/24 17:29:33;;;;;;;;;;;;;;;;;;5112269;28;1877;-38
2022/12/24 17:32:00;;;;;;;;;;;;;;;;;;5110081;28;1943;-39
2022/12/24 17:34:27;;;;;;;;;;;;;;;;;;5110211;27;1879;-38